Αρχική σελίδα
METAR-TAF:

METAR-TAF

Αεροδρόμια :

Northway, Αλάσκα, Ηνωμένες Πολιτείες Αμερικής

γεωγραφικό πλάτος: 62-57-40N, γεωγραφικό μήκος: 141-55-44W, υψόμετρο: 523 μ

Παρών καιρός

Η αναφορά έγινε 1 ώρα και 6 λεπτά πριν, στις 14:53 UTC
Άνεμος 3 kt από Α/NA
Θερμοκρασία -6°C
Υγρασία 86%
Πίεση 998 hPa
Ορατότητα: 16.1 χλμ
Διάσπαρτα νέφη σε ύψος 18000 πόδια

METAR: PAOR 181453Z 12003KT 10SM SCT180 M06/M08 A2948 RMK AO2 SLP009 T10561083 58001

Χρόνος: 07:59 (15:59 UTC)

Πρόγνωση Καιρού

Η αναφορά έγινε 4 ώρες και 33 λεπτά πριν, στις 11:26 UTC
Η πρόγνωση ισχύει από τις 18 στις 12 UTC έως τις 19 στις 12 UTC
Άνεμος 4 kt από ΝΔ
Ορατότητα: 10 χλμ
Αρκετά νέφη σε ύψος 15000 πόδια
Νεφοσκεπής σε ύψος 18000 πόδια

TAF: PAOR 181126Z 1812/1912 23004KT P6SM BKN150 OVC180

Μετεωρολογικές αναφορές και προγνώσεις για περισσότερα από 4000 αεροδρόμια (δελτία METAR και TAF).

Οι διαθέσιμοι σταθμοί απεικονίζονται στο χάρτη με κίτρινες και κόκκινες κουκκίδες.

Μετακινήστε το ποντίκι πάνω από τις κουκκίδες για να δείτε το όνομα του σταθμού.

Στη συνέχεια, κάντε κλικ για να δείτε τις μετεωρολογικές αναφορές και τις προγνώσεις καιρού.

Για να αλλάξετε το χάρτη: κάντε κλικ στα πράσινα κουμπιά με τον μαύρο σταυρό για να ζουμάρετε, στο πράσινο κουμπί με την παύλα για να αφαιρέσετε το ζουμ ή στα πράσινα βέλη για να αντιπαραβάλλετε χάρτες.


METAR-TAF: